Ana Sayfa
METAR-TAF:

METAR-TAF

Havaalanları :

Hobbs, New Mexico, Amerika Birleşik Devletleri

Enlem: 32-41N, Boylam: 103-13W, yükseklik: 1115 m

Güncel hava durumu gözlemi

Rapor saat 00:55 UTC de 16 dakika önce yapıldı.
Rüzgar kuzey/kuzeydoğudan 15 kt
Sıcaklık 21°C
Nem 43%
Basınç 1016 hPa
Görüş mesafesi: 16.1 km
6000 ft yükseklikte çok bulutlu

METAR: KHOB 260055Z AUTO 02015KT 10SM OVC060 21/08 A3000 RMK AO2

Saat: 19:11 (01:11 UTC)

Tahmin

Rapor saat 23:20 UTC de 1 saat ve 51 dakika önce yapıldı.
Ayın 26'si saat 00 UTC'den ayın 26'si saat 24 UTC'ye kadar geçerli Tahmin
Rüzgar kuzey/kuzeydoğudan 10 kt
Görüş mesafesi: 10 km
5000 ft yükseklikte parçalı bulutlu
Ayın 26'si saat 0600 UTC'den
Rüzgar kuzeydan 6 kt
Görüş mesafesi: 10 km
25000 ft yükseklikte parçalı bulutlu

TAF: KHOB 252320Z 2600/2624 03010KT P6SM SCT050 FM260600 35006KT P6SM SCT250

4.000'den fazla havaalanı için hava durumu gözlemleri ve tahminleri (METAR ve TAF raporları).

Kullanılabilir istasyonlar harita üzerinde sarı ve kırmızı noktalarla gösterilir.

İstasyonun adını görmek için fareyi noktanın üzerinde gezdirin.

Sonrasında hava gözlem ve tahminlerini görmek için tıklayın.

Haritayı değiştirmek için: yaklaştırmak için siyah artı işaretli yeşil düğmeye ve uzaklaştırmak için de eksi işaretli düğmeye hızla tıklayın; bitişik haritalar için yeşil okları kullanın.


METAR-TAF: